sensor_id;sensor_type;location;lat;lon;timestamp;temperature;humidity
23122;DHT22;11730;51.248;22.534;2023-09-18T00:00:48;18.10;1.00
23122;DHT22;11730;51.248;22.534;2023-09-18T00:03:19;18.00;1.00
23122;DHT22;11730;51.248;22.534;2023-09-18T00:08:16;17.80;1.00
23122;DHT22;11730;51.248;22.534;2023-09-18T00:10:51;18.50;1.00
23122;DHT22;11730;51.248;22.534;2023-09-18T00:13:19;18.00;1.00
23122;DHT22;11730;51.248;22.534;2023-09-18T00:15:46;18.10;1.00
23122;DHT22;11730;51.248;22.534;2023-09-18T00:18:16;18.60;1.00
23122;DHT22;11730;51.248;22.534;2023-09-18T00:20:44;18.70;1.00
23122;DHT22;11730;51.248;22.534;2023-09-18T00:28:09;18.00;1.00
23122;DHT22;11730;51.248;22.534;2023-09-18T00:30:38;18.50;1.00
23122;DHT22;11730;51.248;22.534;2023-09-18T00:35:36;18.20;1.00
23122;DHT22;11730;51.248;22.534;2023-09-18T00:38:03;18.50;1.00
23122;DHT22;11730;51.248;22.534;2023-09-18T00:47:52;18.20;1.00
23122;DHT22;11730;51.248;22.534;2023-09-18T00:50:21;18.70;1.00
23122;DHT22;11730;51.248;22.534;2023-09-18T00:52:49;18.20;1.00
23122;DHT22;11730;51.248;22.534;2023-09-18T00:55:16;18.30;1.00
23122;DHT22;11730;51.248;22.534;2023-09-18T00:57:44;18.10;1.00
23122;DHT22;11730;51.248;22.534;2023-09-18T01:00:12;18.20;1.00
23122;DHT22;11730;51.248;22.534;2023-09-18T01:02:44;18.80;1.00
23122;DHT22;11730;51.248;22.534;2023-09-18T01:10:08;17.00;1.00
23122;DHT22;11730;51.248;22.534;2023-09-18T01:15:37;16.90;1.00
23122;DHT22;11730;51.248;22.534;2023-09-18T01:18:09;17.30;1.00
23122;DHT22;11730;51.248;22.534;2023-09-18T01:20:36;17.70;1.00
23122;DHT22;11730;51.248;22.534;2023-09-18T01:23:03;17.50;1.00
23122;DHT22;11730;51.248;22.534;2023-09-18T01:25:33;17.10;1.00
23122;DHT22;11730;51.248;22.534;2023-09-18T01:28:01;17.40;1.00
23122;DHT22;11730;51.248;22.534;2023-09-18T01:30:28;17.10;1.00
23122;DHT22;11730;51.248;22.534;2023-09-18T01:32:59;16.80;1.00
23122;DHT22;11730;51.248;22.534;2023-09-18T01:35:27;17.00;1.00
23122;DHT22;11730;51.248;22.534;2023-09-18T01:37:57;17.30;1.00
23122;DHT22;11730;51.248;22.534;2023-09-18T01:40:25;17.30;1.00
23122;DHT22;11730;51.248;22.534;2023-09-18T01:42:53;17.40;1.00
23122;DHT22;11730;51.248;22.534;2023-09-18T01:50:15;17.00;1.00
23122;DHT22;11730;51.248;22.534;2023-09-18T01:52:42;16.90;1.00
23122;DHT22;11730;51.248;22.534;2023-09-18T01:55:09;17.00;1.00
23122;DHT22;11730;51.248;22.534;2023-09-18T01:57:36;16.90;1.00
23122;DHT22;11730;51.248;22.534;2023-09-18T02:00:04;16.80;1.00
23122;DHT22;11730;51.248;22.534;2023-09-18T02:07:43;17.80;1.00
23122;DHT22;11730;51.248;22.534;2023-09-18T02:10:10;16.80;1.00
23122;DHT22;11730;51.248;22.534;2023-09-18T02:15:07;17.30;1.00
23122;DHT22;11730;51.248;22.534;2023-09-18T02:17:36;16.90;1.00
23122;DHT22;11730;51.248;22.534;2023-09-18T02:20:04;17.70;1.00
23122;DHT22;11730;51.248;22.534;2023-09-18T02:22:38;17.00;1.00
23122;DHT22;11730;51.248;22.534;2023-09-18T02:25:08;17.20;1.00
23122;DHT22;11730;51.248;22.534;2023-09-18T02:27:35;16.70;1.00
23122;DHT22;11730;51.248;22.534;2023-09-18T02:30:03;17.10;1.00
23122;DHT22;11730;51.248;22.534;2023-09-18T02:34:57;17.10;1.00
23122;DHT22;11730;51.248;22.534;2023-09-18T02:42:19;17.10;1.00
23122;DHT22;11730;51.248;22.534;2023-09-18T02:44:46;16.90;1.00
23122;DHT22;11730;51.248;22.534;2023-09-18T02:47:14;16.50;1.00
23122;DHT22;11730;51.248;22.534;2023-09-18T02:49:41;16.70;1.00
23122;DHT22;11730;51.248;22.534;2023-09-18T02:59:30;16.50;1.00
23122;DHT22;11730;51.248;22.534;2023-09-18T03:01:58;16.80;1.00
23122;DHT22;11730;51.248;22.534;2023-09-18T03:06:52;17.50;1.00
23122;DHT22;11730;51.248;22.534;2023-09-18T03:09:19;16.50;1.00
23122;DHT22;11730;51.248;22.534;2023-09-18T03:16:40;16.70;1.00
23122;DHT22;11730;51.248;22.534;2023-09-18T03:19:07;16.20;1.00
23122;DHT22;11730;51.248;22.534;2023-09-18T03:21:34;16.50;1.00
23122;DHT22;11730;51.248;22.534;2023-09-18T03:24:02;16.40;1.00
23122;DHT22;11730;51.248;22.534;2023-09-18T03:26:29;16.70;1.00
23122;DHT22;11730;51.248;22.534;2023-09-18T03:31:24;16.40;1.00
23122;DHT22;11730;51.248;22.534;2023-09-18T03:33:51;16.50;1.00
23122;DHT22;11730;51.248;22.534;2023-09-18T03:36:21;16.70;1.00
23122;DHT22;11730;51.248;22.534;2023-09-18T03:38:49;16.90;1.00
23122;DHT22;11730;51.248;22.534;2023-09-18T03:43:43;16.30;1.00
23122;DHT22;11730;51.248;22.534;2023-09-18T03:53:33;16.50;1.00
23122;DHT22;11730;51.248;22.534;2023-09-18T03:56:01;16.60;1.00
23122;DHT22;11730;51.248;22.534;2023-09-18T04:10:45;17.30;1.00
23122;DHT22;11730;51.248;22.534;2023-09-18T04:13:12;17.00;1.00
23122;DHT22;11730;51.248;22.534;2023-09-18T04:15:39;16.40;1.00
23122;DHT22;11730;51.248;22.534;2023-09-18T04:23:23;16.40;1.00
23122;DHT22;11730;51.248;22.534;2023-09-18T04:25:51;16.20;1.00
23122;DHT22;11730;51.248;22.534;2023-09-18T04:28:20;16.30;1.00
23122;DHT22;11730;51.248;22.534;2023-09-18T04:30:47;16.50;1.00
23122;DHT22;11730;51.248;22.534;2023-09-18T04:33:15;16.60;1.00
23122;DHT22;11730;51.248;22.534;2023-09-18T04:35:43;16.40;1.00
23122;DHT22;11730;51.248;22.534;2023-09-18T04:40:37;16.60;1.00
23122;DHT22;11730;51.248;22.534;2023-09-18T04:43:07;16.10;1.00
23122;DHT22;11730;51.248;22.534;2023-09-18T04:48:02;16.10;1.00
23122;DHT22;11730;51.248;22.534;2023-09-18T04:55:24;16.20;1.00
23122;DHT22;11730;51.248;22.534;2023-09-18T05:02:50;16.30;1.00
23122;DHT22;11730;51.248;22.534;2023-09-18T05:05:17;16.40;1.00
23122;DHT22;11730;51.248;22.534;2023-09-18T05:12:40;16.60;1.00
23122;DHT22;11730;51.248;22.534;2023-09-18T05:15:08;16.60;1.00
23122;DHT22;11730;51.248;22.534;2023-09-18T05:17:47;16.70;1.00
23122;DHT22;11730;51.248;22.534;2023-09-18T05:20:16;16.60;1.00
23122;DHT22;11730;51.248;22.534;2023-09-18T05:22:45;17.00;1.00
23122;DHT22;11730;51.248;22.534;2023-09-18T05:30:15;17.10;1.00
23122;DHT22;11730;51.248;22.534;2023-09-18T05:32:43;16.30;1.00
23122;DHT22;11730;51.248;22.534;2023-09-18T05:35:11;17.00;1.00
23122;DHT22;11730;51.248;22.534;2023-09-18T05:37:41;17.10;1.00
23122;DHT22;11730;51.248;22.534;2023-09-18T05:40:09;17.10;1.00
23122;DHT22;11730;51.248;22.534;2023-09-18T05:42:46;17.30;1.00
23122;DHT22;11730;51.248;22.534;2023-09-18T05:45:14;17.30;1.00
23122;DHT22;11730;51.248;22.534;2023-09-18T05:47:42;17.50;1.00
23122;DHT22;11730;51.248;22.534;2023-09-18T05:50:11;17.40;1.00
23122;DHT22;11730;51.248;22.534;2023-09-18T05:52:48;17.30;1.00
23122;DHT22;11730;51.248;22.534;2023-09-18T05:55:16;17.30;1.00
23122;DHT22;11730;51.248;22.534;2023-09-18T05:57:43;17.60;1.00
23122;DHT22;11730;51.248;22.534;2023-09-18T06:00:10;17.70;1.00
23122;DHT22;11730;51.248;22.534;2023-09-18T06:07:38;18.70;1.00
23122;DHT22;11730;51.248;22.534;2023-09-18T06:10:05;19.40;1.00
23122;DHT22;11730;51.248;22.534;2023-09-18T06:17:27;20.10;1.00
23122;DHT22;11730;51.248;22.534;2023-09-18T06:22:22;20.60;1.00
23122;DHT22;11730;51.248;22.534;2023-09-18T06:24:49;20.50;1.00
23122;DHT22;11730;51.248;22.534;2023-09-18T06:29:45;21.40;1.00
23122;DHT22;11730;51.248;22.534;2023-09-18T06:39:41;22.30;1.00
23122;DHT22;11730;51.248;22.534;2023-09-18T06:47:04;23.30;1.00
23122;DHT22;11730;51.248;22.534;2023-09-18T06:49:31;23.40;1.00
23122;DHT22;11730;51.248;22.534;2023-09-18T06:51:58;22.80;1.00
23122;DHT22;11730;51.248;22.534;2023-09-18T06:56:52;24.40;1.00
23122;DHT22;11730;51.248;22.534;2023-09-18T06:59:19;24.20;1.00
23122;DHT22;11730;51.248;22.534;2023-09-18T07:01:46;25.10;99.90
23122;DHT22;11730;51.248;22.534;2023-09-18T07:04:13;24.80;99.90
23122;DHT22;11730;51.248;22.534;2023-09-18T07:14:06;25.60;99.90
23122;DHT22;11730;51.248;22.534;2023-09-18T07:16:33;26.40;99.90
23122;DHT22;11730;51.248;22.534;2023-09-18T07:19:03;25.90;99.90
23122;DHT22;11730;51.248;22.534;2023-09-18T07:21:31;25.80;99.90
23122;DHT22;11730;51.248;22.534;2023-09-18T07:23:58;26.20;99.90
23122;DHT22;11730;51.248;22.534;2023-09-18T07:28:53;26.90;99.90
23122;DHT22;11730;51.248;22.534;2023-09-18T07:31:20;26.90;99.90
23122;DHT22;11730;51.248;22.534;2023-09-18T07:33:47;26.80;99.90
23122;DHT22;11730;51.248;22.534;2023-09-18T07:36:15;27.30;99.90
23122;DHT22;11730;51.248;22.534;2023-09-18T07:38:42;27.50;99.90
23122;DHT22;11730;51.248;22.534;2023-09-18T07:41:11;27.30;99.90
23122;DHT22;11730;51.248;22.534;2023-09-18T07:58:26;26.00;99.90
23122;DHT22;11730;51.248;22.534;2023-09-18T08:00:55;26.70;99.90
23122;DHT22;11730;51.248;22.534;2023-09-18T08:03:24;25.80;99.90
23122;DHT22;11730;51.248;22.534;2023-09-18T08:05:54;26.70;99.90
23122;DHT22;11730;51.248;22.534;2023-09-18T08:08:22;27.40;99.90
23122;DHT22;11730;51.248;22.534;2023-09-18T08:10:51;27.70;99.90
23122;DHT22;11730;51.248;22.534;2023-09-18T08:18:14;28.00;99.90
23122;DHT22;11730;51.248;22.534;2023-09-18T08:20:44;28.40;99.90
23122;DHT22;11730;51.248;22.534;2023-09-18T08:23:11;27.70;99.90
23122;DHT22;11730;51.248;22.534;2023-09-18T08:25:39;27.80;99.90
23122;DHT22;11730;51.248;22.534;2023-09-18T08:30:36;28.00;99.90
23122;DHT22;11730;51.248;22.534;2023-09-18T08:33:06;27.10;99.90
23122;DHT22;11730;51.248;22.534;2023-09-18T08:40:29;27.60;99.90
23122;DHT22;11730;51.248;22.534;2023-09-18T08:42:58;27.20;99.90
23122;DHT22;11730;51.248;22.534;2023-09-18T08:45:46;27.20;99.90
23122;DHT22;11730;51.248;22.534;2023-09-18T08:48:15;28.20;99.90
23122;DHT22;11730;51.248;22.534;2023-09-18T08:50:43;28.20;99.90
23122;DHT22;11730;51.248;22.534;2023-09-18T08:58:07;27.60;99.90
23122;DHT22;11730;51.248;22.534;2023-09-18T09:00:37;27.80;99.90
23122;DHT22;11730;51.248;22.534;2023-09-18T09:03:05;28.60;99.90
23122;DHT22;11730;51.248;22.534;2023-09-18T09:05:32;29.20;99.90
23122;DHT22;11730;51.248;22.534;2023-09-18T09:12:58;28.30;99.90
23122;DHT22;11730;51.248;22.534;2023-09-18T09:15:32;28.80;99.90
23122;DHT22;11730;51.248;22.534;2023-09-18T09:18:06;28.70;99.90
23122;DHT22;11730;51.248;22.534;2023-09-18T09:20:35;28.90;99.90
23122;DHT22;11730;51.248;22.534;2023-09-18T09:23:04;28.70;99.90
23122;DHT22;11730;51.248;22.534;2023-09-18T09:25:32;28.70;99.90
23122;DHT22;11730;51.248;22.534;2023-09-18T09:28:05;29.40;99.90
23122;DHT22;11730;51.248;22.534;2023-09-18T09:30:34;29.50;99.90
23122;DHT22;11730;51.248;22.534;2023-09-18T09:33:04;29.30;99.90
23122;DHT22;11730;51.248;22.534;2023-09-18T09:35:35;28.90;99.90
23122;DHT22;11730;51.248;22.534;2023-09-18T09:38:11;28.90;99.90
23122;DHT22;11730;51.248;22.534;2023-09-18T09:40:42;29.00;99.90
23122;DHT22;11730;51.248;22.534;2023-09-18T09:43:12;29.40;99.90
23122;DHT22;11730;51.248;22.534;2023-09-18T09:45:41;29.60;99.90
23122;DHT22;11730;51.248;22.534;2023-09-18T09:50:48;28.90;99.90
23122;DHT22;11730;51.248;22.534;2023-09-18T09:55:44;29.90;99.90
23122;DHT22;11730;51.248;22.534;2023-09-18T09:58:11;29.70;99.90
23122;DHT22;11730;51.248;22.534;2023-09-18T10:00:50;29.70;99.90
23122;DHT22;11730;51.248;22.534;2023-09-18T10:03:20;29.60;99.90
23122;DHT22;11730;51.248;22.534;2023-09-18T10:05:51;31.00;99.90
23122;DHT22;11730;51.248;22.534;2023-09-18T10:08:22;31.20;99.90
23122;DHT22;11730;51.248;22.534;2023-09-18T10:10:51;31.30;99.90
23122;DHT22;11730;51.248;22.534;2023-09-18T10:13:23;31.80;99.90
23122;DHT22;11730;51.248;22.534;2023-09-18T10:15:55;31.60;99.90
23122;DHT22;11730;51.248;22.534;2023-09-18T10:18:28;32.30;99.90
23122;DHT22;11730;51.248;22.534;2023-09-18T10:21:03;32.00;99.90
23122;DHT22;11730;51.248;22.534;2023-09-18T10:26:13;31.80;99.90
23122;DHT22;11730;51.248;22.534;2023-09-18T10:28:43;31.70;99.90
23122;DHT22;11730;51.248;22.534;2023-09-18T10:31:12;31.00;99.90
23122;DHT22;11730;51.248;22.534;2023-09-18T10:33:40;31.40;99.90
23122;DHT22;11730;51.248;22.534;2023-09-18T10:36:08;31.70;99.90
23122;DHT22;11730;51.248;22.534;2023-09-18T10:38:36;31.70;99.90
23122;DHT22;11730;51.248;22.534;2023-09-18T10:41:05;32.40;99.90
23122;DHT22;11730;51.248;22.534;2023-09-18T10:43:35;31.80;99.90
23122;DHT22;11730;51.248;22.534;2023-09-18T10:46:02;32.20;99.90
23122;DHT22;11730;51.248;22.534;2023-09-18T10:48:30;31.80;99.90
23122;DHT22;11730;51.248;22.534;2023-09-18T10:50:57;32.60;99.90
23122;DHT22;11730;51.248;22.534;2023-09-18T10:53:26;33.10;99.90
23122;DHT22;11730;51.248;22.534;2023-09-18T10:55:53;33.20;99.90
23122;DHT22;11730;51.248;22.534;2023-09-18T10:58:24;33.50;99.90
23122;DHT22;11730;51.248;22.534;2023-09-18T11:00:54;33.90;99.90
23122;DHT22;11730;51.248;22.534;2023-09-18T11:03:23;33.10;99.90
23122;DHT22;11730;51.248;22.534;2023-09-18T11:06:08;33.30;99.90
23122;DHT22;11730;51.248;22.534;2023-09-18T11:08:47;33.70;99.90
23122;DHT22;11730;51.248;22.534;2023-09-18T11:11:18;33.20;99.90
23122;DHT22;11730;51.248;22.534;2023-09-18T11:13:50;33.60;99.90
23122;DHT22;11730;51.248;22.534;2023-09-18T11:16:34;33.30;99.90
23122;DHT22;11730;51.248;22.534;2023-09-18T11:19:13;33.00;99.90
23122;DHT22;11730;51.248;22.534;2023-09-18T11:24:20;33.50;99.90
23122;DHT22;11730;51.248;22.534;2023-09-18T11:26:49;33.00;99.90
23122;DHT22;11730;51.248;22.534;2023-09-18T11:29:21;33.00;99.90
23122;DHT22;11730;51.248;22.534;2023-09-18T11:31:58;33.50;99.90
23122;DHT22;11730;51.248;22.534;2023-09-18T11:34:32;33.70;99.90
23122;DHT22;11730;51.248;22.534;2023-09-18T11:37:02;33.40;99.90
23122;DHT22;11730;51.248;22.534;2023-09-18T11:39:45;33.40;99.90
23122;DHT22;11730;51.248;22.534;2023-09-18T11:42:17;32.20;99.90
23122;DHT22;11730;51.248;22.534;2023-09-18T11:44:44;32.90;99.90
23122;DHT22;11730;51.248;22.534;2023-09-18T11:47:16;32.70;99.90
23122;DHT22;11730;51.248;22.534;2023-09-18T11:49:59;32.30;99.90
23122;DHT22;11730;51.248;22.534;2023-09-18T11:52:29;31.20;99.90
23122;DHT22;11730;51.248;22.534;2023-09-18T11:54:58;31.60;99.90
23122;DHT22;11730;51.248;22.534;2023-09-18T11:57:25;30.90;99.90
23122;DHT22;11730;51.248;22.534;2023-09-18T12:04:55;29.40;99.90
23122;DHT22;11730;51.248;22.534;2023-09-18T12:07:23;29.50;99.90
23122;DHT22;11730;51.248;22.534;2023-09-18T12:12:21;29.00;99.90
23122;DHT22;11730;51.248;22.534;2023-09-18T12:17:16;29.20;99.90
23122;DHT22;11730;51.248;22.534;2023-09-18T12:19:53;29.20;99.90
23122;DHT22;11730;51.248;22.534;2023-09-18T12:22:28;29.00;99.90
23122;DHT22;11730;51.248;22.534;2023-09-18T12:25:28;28.80;99.90
23122;DHT22;11730;51.248;22.534;2023-09-18T12:27:55;29.30;99.90
23122;DHT22;11730;51.248;22.534;2023-09-18T12:32:50;29.90;99.90
23122;DHT22;11730;51.248;22.534;2023-09-18T12:35:18;29.40;99.90
23122;DHT22;11730;51.248;22.534;2023-09-18T12:37:48;29.00;99.90
23122;DHT22;11730;51.248;22.534;2023-09-18T12:40:30;28.70;99.90
23122;DHT22;11730;51.248;22.534;2023-09-18T12:42:59;28.50;99.90
23122;DHT22;11730;51.248;22.534;2023-09-18T12:45:28;27.90;99.90
23122;DHT22;11730;51.248;22.534;2023-09-18T12:47:57;27.90;99.90
23122;DHT22;11730;51.248;22.534;2023-09-18T12:55:24;27.90;99.90
23122;DHT22;11730;51.248;22.534;2023-09-18T12:57:55;28.10;99.90
23122;DHT22;11730;51.248;22.534;2023-09-18T13:00:23;28.20;99.90
23122;DHT22;11730;51.248;22.534;2023-09-18T13:02:50;28.40;99.90
23122;DHT22;11730;51.248;22.534;2023-09-18T13:07:54;28.60;99.90
23122;DHT22;11730;51.248;22.534;2023-09-18T13:10:21;28.60;99.90
23122;DHT22;11730;51.248;22.534;2023-09-18T13:15:32;27.60;99.90
23122;DHT22;11730;51.248;22.534;2023-09-18T13:18:01;27.90;99.90
23122;DHT22;11730;51.248;22.534;2023-09-18T13:23:03;27.30;99.90
23122;DHT22;11730;51.248;22.534;2023-09-18T13:25:35;28.10;99.90
23122;DHT22;11730;51.248;22.534;2023-09-18T13:28:08;28.10;99.90
23122;DHT22;11730;51.248;22.534;2023-09-18T13:30:39;28.70;99.90
23122;DHT22;11730;51.248;22.534;2023-09-18T13:33:13;28.70;99.90
23122;DHT22;11730;51.248;22.534;2023-09-18T13:35:44;28.50;99.90
23122;DHT22;11730;51.248;22.534;2023-09-18T13:40:45;28.50;99.90
23122;DHT22;11730;51.248;22.534;2023-09-18T13:43:13;28.50;99.90
23122;DHT22;11730;51.248;22.534;2023-09-18T13:45:42;27.90;99.90
23122;DHT22;11730;51.248;22.534;2023-09-18T13:50:37;28.20;99.90
23122;DHT22;11730;51.248;22.534;2023-09-18T13:53:05;28.60;99.90
23122;DHT22;11730;51.248;22.534;2023-09-18T13:55:33;28.40;99.90
23122;DHT22;11730;51.248;22.534;2023-09-18T13:58:00;28.50;99.90
23122;DHT22;11730;51.248;22.534;2023-09-18T14:00:30;28.40;99.90
23122;DHT22;11730;51.248;22.534;2023-09-18T14:02:57;27.70;99.90
23122;DHT22;11730;51.248;22.534;2023-09-18T14:10:27;27.60;99.90
23122;DHT22;11730;51.248;22.534;2023-09-18T14:17:49;27.80;99.90
23122;DHT22;11730;51.248;22.534;2023-09-18T14:20:16;27.30;99.90
23122;DHT22;11730;51.248;22.534;2023-09-18T14:22:47;27.00;99.90
23122;DHT22;11730;51.248;22.534;2023-09-18T14:25:18;26.50;99.90
23122;DHT22;11730;51.248;22.534;2023-09-18T14:27:47;26.60;99.90
23122;DHT22;11730;51.248;22.534;2023-09-18T14:32:41;26.40;99.90
23122;DHT22;11730;51.248;22.534;2023-09-18T14:35:09;26.20;99.90
23122;DHT22;11730;51.248;22.534;2023-09-18T14:37:36;26.10;99.90
23122;DHT22;11730;51.248;22.534;2023-09-18T14:40:04;26.30;99.90
23122;DHT22;11730;51.248;22.534;2023-09-18T14:42:31;26.10;99.90
23122;DHT22;11730;51.248;22.534;2023-09-18T14:49:56;25.90;99.90
23122;DHT22;11730;51.248;22.534;2023-09-18T14:52:25;26.10;99.90
23122;DHT22;11730;51.248;22.534;2023-09-18T14:54:52;25.80;99.90
23122;DHT22;11730;51.248;22.534;2023-09-18T14:59:47;25.70;99.90
23122;DHT22;11730;51.248;22.534;2023-09-18T15:02:15;25.40;99.90
23122;DHT22;11730;51.248;22.534;2023-09-18T15:04:45;25.40;99.90
23122;DHT22;11730;51.248;22.534;2023-09-18T15:07:12;25.40;99.90
23122;DHT22;11730;51.248;22.534;2023-09-18T15:09:40;25.40;99.90
23122;DHT22;11730;51.248;22.534;2023-09-18T15:17:03;25.60;99.90
23122;DHT22;11730;51.248;22.534;2023-09-18T15:21:58;25.60;99.90
23122;DHT22;11730;51.248;22.534;2023-09-18T15:24:26;25.80;99.90
23122;DHT22;11730;51.248;22.534;2023-09-18T15:34:16;25.40;99.90
23122;DHT22;11730;51.248;22.534;2023-09-18T15:36:44;25.30;99.90
23122;DHT22;11730;51.248;22.534;2023-09-18T15:41:39;25.30;99.90
23122;DHT22;11730;51.248;22.534;2023-09-18T15:44:07;25.30;99.90
23122;DHT22;11730;51.248;22.534;2023-09-18T15:53:59;25.10;99.90
23122;DHT22;11730;51.248;22.534;2023-09-18T16:01:21;24.80;99.90
23122;DHT22;11730;51.248;22.534;2023-09-18T16:03:48;24.80;99.90
23122;DHT22;11730;51.248;22.534;2023-09-18T16:06:18;25.00;99.90
23122;DHT22;11730;51.248;22.534;2023-09-18T16:11:20;24.60;99.90
23122;DHT22;11730;51.248;22.534;2023-09-18T16:18:45;24.30;99.90
23122;DHT22;11730;51.248;22.534;2023-09-18T16:26:08;24.20;99.90
23122;DHT22;11730;51.248;22.534;2023-09-18T16:33:34;24.00;99.90
23122;DHT22;11730;51.248;22.534;2023-09-18T16:36:01;24.10;99.90
23122;DHT22;11730;51.248;22.534;2023-09-18T16:43:24;23.80;99.90
23122;DHT22;11730;51.248;22.534;2023-09-18T16:50:46;23.50;99.90
23122;DHT22;11730;51.248;22.534;2023-09-18T16:55:41;23.80;99.90
23122;DHT22;11730;51.248;22.534;2023-09-18T17:03:03;23.90;99.90
23122;DHT22;11730;51.248;22.534;2023-09-18T17:05:31;23.30;99.90
23122;DHT22;11730;51.248;22.534;2023-09-18T17:08:01;23.40;99.90
23122;DHT22;11730;51.248;22.534;2023-09-18T17:10:30;23.30;99.90
23122;DHT22;11730;51.248;22.534;2023-09-18T17:17:52;23.20;99.90
23122;DHT22;11730;51.248;22.534;2023-09-18T17:20:28;23.00;99.90
23122;DHT22;11730;51.248;22.534;2023-09-18T17:22:59;22.90;99.90
23122;DHT22;11730;51.248;22.534;2023-09-18T17:25:26;22.90;99.90
23122;DHT22;11730;51.248;22.534;2023-09-18T17:27:53;22.90;99.90
23122;DHT22;11730;51.248;22.534;2023-09-18T17:30:21;22.80;99.90
23122;DHT22;11730;51.248;22.534;2023-09-18T17:35:15;22.70;99.90
23122;DHT22;11730;51.248;22.534;2023-09-18T17:37:44;22.70;99.90
23122;DHT22;11730;51.248;22.534;2023-09-18T17:40:11;22.50;99.90
23122;DHT22;11730;51.248;22.534;2023-09-18T17:42:39;22.40;99.90
23122;DHT22;11730;51.248;22.534;2023-09-18T17:45:06;22.60;99.90
23122;DHT22;11730;51.248;22.534;2023-09-18T17:52:30;22.50;99.90
23122;DHT22;11730;51.248;22.534;2023-09-18T17:54:57;21.80;99.90
23122;DHT22;11730;51.248;22.534;2023-09-18T17:59:52;22.30;99.90
23122;DHT22;11730;51.248;22.534;2023-09-18T18:04:47;22.10;99.90
23122;DHT22;11730;51.248;22.534;2023-09-18T18:19:31;21.80;99.90
23122;DHT22;11730;51.248;22.534;2023-09-18T18:26:52;21.90;99.90
23122;DHT22;11730;51.248;22.534;2023-09-18T18:29:20;21.20;99.90
23122;DHT22;11730;51.248;22.534;2023-09-18T18:31:47;21.80;99.90
23122;DHT22;11730;51.248;22.534;2023-09-18T18:39:12;21.50;99.90
23122;DHT22;11730;51.248;22.534;2023-09-18T18:44:08;21.20;99.90
23122;DHT22;11730;51.248;22.534;2023-09-18T18:56:30;21.40;99.90
23122;DHT22;11730;51.248;22.534;2023-09-18T19:03:55;21.10;99.90
23122;DHT22;11730;51.248;22.534;2023-09-18T19:08:50;20.80;99.90
23122;DHT22;11730;51.248;22.534;2023-09-18T19:18:41;21.10;99.90
23122;DHT22;11730;51.248;22.534;2023-09-18T19:21:08;21.00;99.90
23122;DHT22;11730;51.248;22.534;2023-09-18T19:23:38;20.70;99.90
23122;DHT22;11730;51.248;22.534;2023-09-18T19:26:06;20.70;99.90
23122;DHT22;11730;51.248;22.534;2023-09-18T19:28:35;21.00;99.90
23122;DHT22;11730;51.248;22.534;2023-09-18T19:36:06;20.70;99.90
23122;DHT22;11730;51.248;22.534;2023-09-18T19:38:33;20.70;99.90
23122;DHT22;11730;51.248;22.534;2023-09-18T19:41:03;20.70;99.90
23122;DHT22;11730;51.248;22.534;2023-09-18T19:43:31;20.60;99.90
23122;DHT22;11730;51.248;22.534;2023-09-18T19:45:58;20.50;99.90
23122;DHT22;11730;51.248;22.534;2023-09-18T19:53:31;20.50;99.90
23122;DHT22;11730;51.248;22.534;2023-09-18T19:55:58;20.50;99.90
23122;DHT22;11730;51.248;22.534;2023-09-18T19:58:24;20.40;99.90
23122;DHT22;11730;51.248;22.534;2023-09-18T20:00:52;20.40;99.90
23122;DHT22;11730;51.248;22.534;2023-09-18T20:03:20;20.20;99.90
23122;DHT22;11730;51.248;22.534;2023-09-18T20:13:10;21.10;99.90
23122;DHT22;11730;51.248;22.534;2023-09-18T20:15:37;20.50;99.90
23122;DHT22;11730;51.248;22.534;2023-09-18T20:18:04;20.30;99.90
23122;DHT22;11730;51.248;22.534;2023-09-18T20:20:31;20.30;99.90
23122;DHT22;11730;51.248;22.534;2023-09-18T20:25:25;20.30;99.90
23122;DHT22;11730;51.248;22.534;2023-09-18T20:27:53;20.30;99.90
23122;DHT22;11730;51.248;22.534;2023-09-18T20:30:21;20.20;99.90
23122;DHT22;11730;51.248;22.534;2023-09-18T20:35:16;20.80;99.90
23122;DHT22;11730;51.248;22.534;2023-09-18T20:37:43;20.60;99.90
23122;DHT22;11730;51.248;22.534;2023-09-18T20:52:29;20.30;99.90
23122;DHT22;11730;51.248;22.534;2023-09-18T20:54:56;19.90;99.90
23122;DHT22;11730;51.248;22.534;2023-09-18T20:59:52;19.80;99.90
23122;DHT22;11730;51.248;22.534;2023-09-18T21:02:21;20.10;99.90
23122;DHT22;11730;51.248;22.534;2023-09-18T21:04:48;19.90;99.90
23122;DHT22;11730;51.248;22.534;2023-09-18T21:07:15;20.00;99.90
23122;DHT22;11730;51.248;22.534;2023-09-18T21:17:06;20.00;99.90
23122;DHT22;11730;51.248;22.534;2023-09-18T21:19:33;19.80;99.90
23122;DHT22;11730;51.248;22.534;2023-09-18T21:24:29;20.30;99.90
23122;DHT22;11730;51.248;22.534;2023-09-18T21:26:56;20.00;99.90
23122;DHT22;11730;51.248;22.534;2023-09-18T21:29:23;19.90;99.90
23122;DHT22;11730;51.248;22.534;2023-09-18T21:36:51;19.60;99.90
23122;DHT22;11730;51.248;22.534;2023-09-18T21:41:47;19.90;99.90
23122;DHT22;11730;51.248;22.534;2023-09-18T21:44:14;20.30;99.90
23122;DHT22;11730;51.248;22.534;2023-09-18T21:54:06;20.00;99.90
23122;DHT22;11730;51.248;22.534;2023-09-18T22:01:29;20.00;99.90
23122;DHT22;11730;51.248;22.534;2023-09-18T22:11:22;19.70;1.00
23122;DHT22;11730;51.248;22.534;2023-09-18T22:21:13;20.00;1.00
23122;DHT22;11730;51.248;22.534;2023-09-18T22:23:41;19.50;99.90
23122;DHT22;11730;51.248;22.534;2023-09-18T22:26:08;18.90;1.00
23122;DHT22;11730;51.248;22.534;2023-09-18T22:31:06;19.60;1.00
23122;DHT22;11730;51.248;22.534;2023-09-18T22:55:36;19.20;1.00
23122;DHT22;11730;51.248;22.534;2023-09-18T22:58:07;19.10;1.00
23122;DHT22;11730;51.248;22.534;2023-09-18T23:00:36;19.10;1.00
23122;DHT22;11730;51.248;22.534;2023-09-18T23:03:06;19.10;1.00
23122;DHT22;11730;51.248;22.534;2023-09-18T23:05:37;19.00;1.00
23122;DHT22;11730;51.248;22.534;2023-09-18T23:08:08;19.10;1.00
23122;DHT22;11730;51.248;22.534;2023-09-18T23:10:36;18.50;1.00
23122;DHT22;11730;51.248;22.534;2023-09-18T23:15:32;19.40;1.00
23122;DHT22;11730;51.248;22.534;2023-09-18T23:18:02;19.40;1.00
23122;DHT22;11730;51.248;22.534;2023-09-18T23:20:38;18.60;1.00
23122;DHT22;11730;51.248;22.534;2023-09-18T23:23:06;18.90;1.00
23122;DHT22;11730;51.248;22.534;2023-09-18T23:25:34;19.30;1.00
23122;DHT22;11730;51.248;22.534;2023-09-18T23:28:04;19.20;1.00
23122;DHT22;11730;51.248;22.534;2023-09-18T23:33:01;18.80;1.00
23122;DHT22;11730;51.248;22.534;2023-09-18T23:38:03;18.80;1.00
23122;DHT22;11730;51.248;22.534;2023-09-18T23:40:32;19.00;1.00
23122;DHT22;11730;51.248;22.534;2023-09-18T23:43:07;18.90;1.00
23122;DHT22;11730;51.248;22.534;2023-09-18T23:45:37;18.70;1.00
23122;DHT22;11730;51.248;22.534;2023-09-18T23:48:16;18.70;1.00